Time;durP1;ratioP1;P1;durP2;ratioP2;P2;SDS_P1;SDS_P2;PMS_P1;PMS_P2;Temp;Humidity;BMP_temperature;BMP_pressure;BME280_temperature;BME280_humidity;BME280_pressure;Samples;Min_cycle;Max_cycle;Signal;HPM_P1;HPM_P2
2022/03/18 00:01:18;;;;;;;6.45;3.60;;;;;;;-2.22;66.40;98272.03;5114693;28;20052;-68
2022/03/18 00:03:44;;;;;;;6.38;3.22;;;;;;;-2.23;66.10;98268.56;5114733;28;20051;-68
2022/03/18 00:06:12;;;;;;;8.65;3.50;;;;;;;-2.32;66.50;98268.22;5114601;28;20043;-68
2022/03/18 00:08:38;;;;;;;9.27;4.07;;;;;;;-2.38;66.95;98278.22;5114465;28;20022;-69
2022/03/18 00:11:03;;;;;;;6.30;4.03;;;;;;;-2.44;66.68;98279.69;5114386;28;20027;-68
2022/03/18 00:13:29;;;;;;;8.68;3.58;;;;;;;-2.50;66.90;98279.44;5114364;28;20481;-68
2022/03/18 00:15:56;;;;;;;6.43;3.60;;;;;;;-2.53;66.92;98284.44;5114534;28;20016;-68
2022/03/18 00:18:22;;;;;;;5.82;3.60;;;;;;;-2.57;66.89;98283.44;5114365;28;20024;-68
2022/03/18 00:20:48;;;;;;;4.20;2.97;;;;;;;-2.60;66.68;98280.75;5114034;28;20046;-69
2022/03/18 00:23:13;;;;;;;10.48;3.88;;;;;;;-2.64;66.80;98281.44;5114528;28;20055;-66
2022/03/18 00:25:39;;;;;;;6.90;3.50;;;;;;;-2.67;67.00;98276.19;5114429;28;20024;-68
2022/03/18 00:28:05;;;;;;;6.20;3.60;;;;;;;-2.69;67.27;98278.69;5114249;28;20023;-68
2022/03/18 00:30:31;;;;;;;5.85;3.70;;;;;;;-2.68;66.81;98280.44;5114132;28;20023;-68
2022/03/18 00:32:56;;;;;;;6.88;4.05;;;;;;;-2.74;66.84;98276.75;5114176;28;20049;-66
2022/03/18 00:35:23;;;;;;;5.53;3.35;;;;;;;-2.79;67.08;98276.53;5114058;28;20015;-66
2022/03/18 00:37:49;;;;;;;5.18;3.38;;;;;;;-2.85;66.94;98276.28;5114039;28;20024;-66
2022/03/18 00:40:15;;;;;;;5.72;3.30;;;;;;;-2.93;66.90;98275.94;5113971;28;20076;-66
2022/03/18 00:42:40;;;;;;;6.13;3.33;;;;;;;-3.08;67.05;98261.66;5113909;28;20023;-67
2022/03/18 00:45:06;;;;;;;5.82;3.47;;;;;;;-3.29;67.55;98269.25;5113814;28;20110;-67
2022/03/18 00:53:01;;;;;;;6.25;3.90;;;;;;;-3.51;68.38;98272.53;5113995;28;20098;-68
2022/03/18 00:55:26;;;;;;;7.85;4.22;;;;;;;-3.61;68.40;98269.53;5113741;28;20107;-68
2022/03/18 00:57:52;;;;;;;7.25;3.60;;;;;;;-3.63;68.40;98273.72;5113671;28;20077;-69
2022/03/18 01:00:17;;;;;;;10.65;3.97;;;;;;;-3.66;68.08;98278.69;5113686;28;20024;-68
2022/03/18 01:02:43;;;;;;;6.30;4.03;;;;;;;-3.67;68.43;98276.97;5113685;28;20096;-67
2022/03/18 01:05:09;;;;;;;5.13;3.70;;;;;;;-3.72;68.47;98280.97;5113685;28;20103;-68
2022/03/18 01:07:34;;;;;;;4.80;3.53;;;;;;;-3.76;68.30;98279.97;5113758;28;20015;-66
2022/03/18 01:10:00;;;;;;;5.47;3.13;;;;;;;-3.82;68.38;98277.97;5113587;28;20114;-68
2022/03/18 01:12:26;;;;;;;9.23;3.83;;;;;;;-3.81;68.28;98276.31;5113644;28;20012;-68
2022/03/18 01:14:52;;;;;;;4.30;3.13;;;;;;;-3.89;68.48;98277.63;5113506;28;20027;-68
2022/03/18 01:17:18;;;;;;;5.35;3.50;;;;;;;-3.99;68.57;98279.75;5113555;28;20016;-68
2022/03/18 01:19:44;;;;;;;5.88;3.40;;;;;;;-4.04;68.86;98277.78;5113500;28;20034;-67
2022/03/18 01:22:10;;;;;;;4.45;3.03;;;;;;;-4.08;68.92;98285.31;5113359;28;20055;-67
2022/03/18 01:24:37;;;;;;;6.70;3.83;;;;;;;-4.09;69.06;98277.56;5113450;28;20024;-68
2022/03/18 01:27:04;;;;;;;5.60;3.38;;;;;;;-4.21;69.07;98277.84;5113492;28;20027;-67
2022/03/18 01:29:30;;;;;;;5.95;3.47;;;;;;;-4.27;68.29;98277.53;5113457;28;20016;-68
2022/03/18 01:31:56;;;;;;;6.65;3.83;;;;;;;-4.29;67.92;98274.91;5113430;28;20028;-68
2022/03/18 01:34:21;;;;;;;6.03;3.70;;;;;;;-4.31;66.88;98271.38;5113337;28;20023;-67
2022/03/18 01:36:48;;;;;;;10.93;3.72;;;;;;;-4.28;64.66;98274.09;5113340;28;20016;-67
2022/03/18 01:39:14;;;;;;;6.43;3.72;;;;;;;-4.13;63.95;98280.78;5113220;28;20114;-67
2022/03/18 01:41:40;;;;;;;6.10;3.53;;;;;;;-4.02;61.97;98278.72;5113264;28;20098;-66
2022/03/18 01:44:12;;;;;;;5.82;3.58;;;;;;;-3.96;61.52;98273.91;5113326;28;20115;-66
2022/03/18 01:46:38;;;;;;;6.75;3.50;;;;;;;-3.84;60.64;98269.38;5113240;28;20035;-67
2022/03/18 01:49:05;;;;;;;7.55;3.70;;;;;;;-3.73;62.59;98271.56;5113264;28;20358;-67
2022/03/18 01:51:31;;;;;;;6.55;3.20;;;;;;;-3.77;62.88;98283.31;5113254;28;20035;-67
2022/03/18 01:56:41;;;;;;;4.35;3.63;;;;;;;-3.84;64.38;98286.38;5113396;28;20038;-67
2022/03/18 01:59:07;;;;;;;5.25;3.63;;;;;;;-3.83;64.19;98285.56;5113104;28;20023;-67
2022/03/18 02:01:32;;;;;;;6.63;3.28;;;;;;;-3.90;64.80;98286.09;5113210;28;20059;-66
2022/03/18 02:03:58;;;;;;;4.60;3.00;;;;;;;-4.01;65.29;98291.56;5113131;28;20095;-66
2022/03/18 02:06:25;;;;;;;3.85;2.92;;;;;;;-4.22;64.71;98297.41;5113076;28;20032;-67
2022/03/18 02:08:50;;;;;;;4.65;3.13;;;;;;;-4.23;65.62;98294.78;5113097;28;20111;-66
2022/03/18 02:11:16;;;;;;;7.15;3.97;;;;;;;-4.41;65.47;98303.28;5112837;28;20114;-67
2022/03/18 02:13:41;;;;;;;13.60;6.40;;;;;;;-4.44;65.67;98305.69;5114140;28;20027;-68
2022/03/18 02:16:07;;;;;;;14.77;6.80;;;;;;;-4.60;65.65;98301.50;5116835;28;20027;-69
2022/03/18 02:18:32;;;;;;;5.97;4.30;;;;;;;-4.68;65.29;98306.22;5116848;28;20024;-67
2022/03/18 02:20:58;;;;;;;6.22;3.58;;;;;;;-4.72;64.98;98304.31;5116348;28;20039;-67
2022/03/18 02:23:24;;;;;;;9.18;3.97;;;;;;;-4.71;65.21;98301.84;5116570;27;20457;-67
2022/03/18 02:25:49;;;;;;;7.25;3.65;;;;;;;-4.74;64.86;98305.91;5116677;28;20023;-66
2022/03/18 02:28:16;;;;;;;7.15;3.75;;;;;;;-4.82;63.01;98310.59;5116618;28;20020;-67
2022/03/18 02:30:41;;;;;;;5.47;3.40;;;;;;;-4.72;62.19;98314.53;5116404;28;20031;-66
2022/03/18 02:33:07;;;;;;;10.93;4.30;;;;;;;-4.60;60.86;98306.63;5116438;28;20026;-67
2022/03/18 02:35:32;;;;;;;4.55;3.40;;;;;;;-4.49;59.99;98309.72;5116300;28;20031;-67
2022/03/18 02:37:59;;;;;;;5.57;3.05;;;;;;;-4.47;59.18;98321.75;5116252;28;20094;-67
2022/03/18 02:40:26;;;;;;;6.47;3.53;;;;;;;-4.35;61.01;98321.50;5116310;28;20073;-67
2022/03/18 02:42:52;;;;;;;5.03;3.40;;;;;;;-4.35;61.76;98323.16;5116202;28;20068;-66
2022/03/18 02:45:18;;;;;;;5.68;3.40;;;;;;;-4.36;61.37;98326.53;5116195;28;20024;-66
2022/03/18 02:47:44;;;;;;;4.85;2.95;;;;;;;-4.37;62.68;98328.19;5116092;28;20073;-66
2022/03/18 02:50:09;;;;;;;5.00;3.35;;;;;;;-4.52;63.15;98327.44;5116113;28;20481;-66
2022/03/18 02:52:35;;;;;;;6.78;3.58;;;;;;;-4.63;63.39;98330.34;5116074;28;20104;-67
2022/03/18 02:55:01;;;;;;;7.05;3.53;;;;;;;-4.77;64.13;98323.63;5116093;28;20102;-67
2022/03/18 02:57:27;;;;;;;7.15;3.42;;;;;;;-4.83;63.97;98316.53;5115980;28;20031;-67
2022/03/18 02:59:52;;;;;;;7.50;3.05;;;;;;;-4.93;64.16;98322.84;5115839;28;20038;-67
2022/03/18 03:02:18;;;;;;;5.45;3.63;;;;;;;-5.03;63.49;98324.03;5115800;28;20430;-67
2022/03/18 03:10:12;;;;;;;8.90;3.45;;;;;;;-5.08;61.77;98321.22;5115736;28;20038;-66
2022/03/18 03:12:41;;;;;;;7.15;3.40;;;;;;;-5.10;61.07;98335.59;5115666;28;20377;-68
2022/03/18 03:15:07;;;;;;;7.25;3.50;;;;;;;-5.04;60.05;98340.16;5115555;28;20012;-65
2022/03/18 03:17:33;;;;;;;4.93;3.58;;;;;;;-5.08;59.20;98339.09;5115622;28;20023;-67
2022/03/18 03:19:58;;;;;;;6.35;3.22;;;;;;;-5.01;58.35;98332.66;5115458;28;20027;-67
2022/03/18 03:22:24;;;;;;;6.07;3.55;;;;;;;-4.91;56.94;98340.81;5115307;28;20085;-67
2022/03/18 03:24:50;;;;;;;9.20;4.20;;;;;;;-4.82;57.07;98346.38;5114301;28;20043;-67
2022/03/18 03:27:15;;;;;;;4.95;3.08;;;;;;;-4.73;56.56;98341.75;5114049;28;20236;-67
2022/03/18 03:29:41;;;;;;;6.80;3.80;;;;;;;-4.68;55.40;98354.75;5115324;28;20023;-67
2022/03/18 03:32:06;;;;;;;6.60;3.45;;;;;;;-4.55;54.48;98351.13;5115328;28;20028;-67
2022/03/18 03:34:32;;;;;;;6.32;3.85;;;;;;;-4.31;51.70;98354.06;5115217;28;20046;-68
2022/03/18 03:36:58;;;;;;;4.50;2.92;;;;;;;-4.18;51.44;98352.13;5115155;28;20389;-67
2022/03/18 03:39:24;;;;;;;4.78;3.03;;;;;;;-3.99;51.37;98360.69;5115087;28;20028;-68
2022/03/18 03:41:50;;;;;;;5.40;3.40;;;;;;;-3.99;51.49;98355.59;5115133;28;20109;-67
2022/03/18 03:44:16;;;;;;;9.27;3.53;;;;;;;-3.84;50.18;98363.13;5115089;28;20020;-68
2022/03/18 03:46:42;;;;;;;5.50;3.28;;;;;;;-3.72;49.30;98362.84;5115016;28;20024;-67
2022/03/18 03:49:07;;;;;;;7.85;3.08;;;;;;;-3.70;49.59;98359.53;5114874;28;20034;-68
2022/03/18 03:51:34;;;;;;;6.20;3.63;;;;;;;-3.63;49.48;98360.72;5114782;28;20024;-68
2022/03/18 03:53:59;;;;;;;6.25;3.33;;;;;;;-3.62;49.34;98364.16;5114851;28;20084;-68
2022/03/18 03:56:25;;;;;;;5.50;3.55;;;;;;;-3.60;49.79;98362.56;5114789;28;20024;-68
2022/03/18 03:58:50;;;;;;;7.78;3.53;;;;;;;-3.57;49.28;98363.59;5113425;27;20027;-68
2022/03/18 04:01:16;;;;;;;4.05;3.22;;;;;;;-3.55;48.03;98366.22;5114702;28;20523;-68
2022/03/18 04:03:42;;;;;;;4.97;3.38;;;;;;;-3.54;48.16;98375.63;5114599;28;20069;-68
2022/03/18 04:06:07;;;;;;;5.38;3.70;;;;;;;-3.51;47.84;98374.91;5114607;28;20103;-68
2022/03/18 04:08:33;;;;;;;5.75;3.33;;;;;;;-3.47;47.40;98387.91;5114561;28;20027;-68
2022/03/18 04:10:58;;;;;;;5.00;3.53;;;;;;;-3.47;47.74;98387.91;5114468;28;20024;-68
2022/03/18 04:13:24;;;;;;;5.93;3.42;;;;;;;-3.41;47.90;98381.34;5114551;28;20076;-68
2022/03/18 04:15:49;;;;;;;6.43;3.20;;;;;;;-3.42;47.08;98385.59;5114453;28;20458;-68
2022/03/18 04:18:15;;;;;;;4.85;3.40;;;;;;;-3.49;47.99;98386.97;5114453;28;20351;-68
2022/03/18 04:20:41;;;;;;;5.22;3.05;;;;;;;-3.52;47.52;98386.84;5114107;28;20035;-68
2022/03/18 04:23:06;;;;;;;10.00;3.83;;;;;;;-3.50;48.14;98397.13;5114356;28;20028;-68
2022/03/18 04:25:32;;;;;;;5.65;3.20;;;;;;;-3.49;47.35;98393.78;5114263;28;20024;-68
2022/03/18 04:27:59;;;;;;;9.77;3.35;;;;;;;-3.50;48.42;98394.56;5114203;28;20481;-68
2022/03/18 04:30:24;;;;;;;4.43;3.17;;;;;;;-3.57;47.36;98391.75;5114105;28;20111;-68
2022/03/18 04:32:50;;;;;;;4.82;3.08;;;;;;;-3.48;46.89;98405.75;5114209;28;20054;-68
2022/03/18 04:35:16;;;;;;;8.20;3.67;;;;;;;-3.47;47.60;98399.81;5113984;28;20024;-68
2022/03/18 04:37:42;;;;;;;4.97;3.33;;;;;;;-3.40;47.50;98401.91;5113657;28;20019;-68
2022/03/18 04:40:11;;;;;;;4.72;3.22;;;;;;;-3.33;47.75;98400.50;5113993;28;20023;-68
2022/03/18 04:42:36;;;;;;;5.45;3.35;;;;;;;-3.34;48.02;98399.59;5114006;28;20027;-68
2022/03/18 04:45:02;;;;;;;5.25;3.58;;;;;;;-3.37;48.26;98406.28;5114042;28;20081;-68
2022/03/18 04:47:29;;;;;;;5.80;3.60;;;;;;;-3.40;47.77;98407.03;5113845;28;20024;-68
2022/03/18 04:49:55;;;;;;;7.07;3.58;;;;;;;-3.38;47.68;98415.63;5113700;28;20486;-68
2022/03/18 04:52:20;;;;;;;6.57;3.60;;;;;;;-3.38;48.77;98415.63;5113789;28;20044;-68
2022/03/18 04:54:46;;;;;;;7.55;3.63;;;;;;;-3.42;50.09;98421.41;5113809;28;20377;-68
2022/03/18 04:57:20;;;;;;;5.40;3.22;;;;;;;-3.39;48.55;98425.81;5113847;28;20386;-68
2022/03/18 04:59:52;;;;;;;7.45;4.00;;;;;;;-3.41;47.51;98423.16;5113779;28;20024;-68
2022/03/18 05:02:18;;;;;;;4.30;2.88;;;;;;;-3.35;47.42;98427.69;5113646;28;20421;-68
2022/03/18 05:04:44;;;;;;;4.97;3.58;;;;;;;-3.45;47.32;98428.94;5113532;28;20059;-68
2022/03/18 05:07:11;;;;;;;5.45;3.47;;;;;;;-3.38;46.44;98427.53;5113614;28;20030;-68
2022/03/18 05:09:39;;;;;;;8.32;3.67;;;;;;;-3.05;46.58;98438.50;5113527;28;20027;-68
2022/03/18 05:12:10;;;;;;;4.32;2.83;;;;;;;-2.29;44.18;98433.31;5113583;28;20020;-68
2022/03/18 05:14:36;;;;;;;6.90;3.35;;;;;;;-1.54;42.94;98436.44;5113597;28;20556;-68
2022/03/18 05:17:04;;;;;;;5.15;2.83;;;;;;;-0.98;41.26;98439.41;5113494;28;20031;-68
2022/03/18 05:19:30;;;;;;;6.85;3.70;;;;;;;-0.50;41.08;98436.06;5113440;28;20028;-68
2022/03/18 05:21:56;;;;;;;6.90;3.55;;;;;;;-0.17;39.53;98435.53;5113356;28;20126;-68
2022/03/18 05:24:22;;;;;;;5.88;3.28;;;;;;;0.16;38.66;98443.47;5113485;28;20019;-68
2022/03/18 05:26:48;;;;;;;8.02;3.72;;;;;;;0.27;38.81;98443.84;5113470;28;20076;-68
2022/03/18 05:29:16;;;;;;;8.10;3.50;;;;;;;0.70;37.50;98434.97;5113415;28;20444;-68
2022/03/18 05:31:43;;;;;;;4.78;3.17;;;;;;;1.03;36.20;98454.00;5113281;28;20042;-68
2022/03/18 05:34:08;;;;;;;4.85;3.60;;;;;;;1.21;35.73;98445.94;5113410;28;20028;-68
2022/03/18 05:36:34;;;;;;;6.72;3.40;;;;;;;1.77;35.42;98446.66;5113314;28;20031;-68
2022/03/18 05:39:00;;;;;;;5.70;3.70;;;;;;;2.10;34.41;98455.28;5113263;28;20073;-68
2022/03/18 05:41:26;;;;;;;5.53;3.83;;;;;;;2.31;33.00;98447.22;5113297;28;20055;-68
2022/03/18 05:43:51;;;;;;;7.45;3.35;;;;;;;2.74;32.70;98459.47;5113342;28;20028;-68
2022/03/18 05:46:17;;;;;;;6.18;3.80;;;;;;;3.06;32.12;98456.75;5113260;28;20043;-68
2022/03/18 05:48:42;;;;;;;5.40;3.15;;;;;;;3.80;31.27;98461.78;5114614;28;20016;-68
2022/03/18 05:51:08;;;;;;;6.47;3.40;;;;;;;3.84;30.27;98458.41;5117138;28;20028;-68
2022/03/18 05:53:34;;;;;;;5.07;3.33;;;;;;;3.96;30.37;98455.16;5117282;28;20016;-67
2022/03/18 05:58:44;;;;;;;6.88;3.85;;;;;;;4.06;29.88;98458.78;5117457;28;20080;-67
2022/03/18 06:01:11;;;;;;;5.78;3.78;;;;;;;3.97;29.47;98466.41;5117055;28;20024;-67
2022/03/18 06:03:37;;;;;;;6.72;4.28;;;;;;;3.48;30.02;98474.91;5116976;28;20020;-68
2022/03/18 06:06:06;;;;;;;4.72;3.08;;;;;;;3.24;30.98;98466.66;5116891;28;20020;-67
2022/03/18 06:13:59;;;;;;;7.15;4.07;;;;;;;4.35;30.42;98478.31;5116918;28;20401;-67
2022/03/18 06:16:25;;;;;;;5.10;3.60;;;;;;;4.64;29.34;98473.63;5116706;28;20032;-67
2022/03/18 06:18:50;;;;;;;7.13;4.53;;;;;;;4.43;28.92;98479.34;5116640;28;20481;-67
2022/03/18 06:21:16;;;;;;;4.93;3.70;;;;;;;4.32;28.67;98488.63;5116409;28;20044;-67
2022/03/18 06:23:43;;;;;;;5.47;3.95;;;;;;;4.20;29.90;98490.16;5116696;28;20028;-67
2022/03/18 06:26:09;;;;;;;6.03;3.95;;;;;;;4.03;29.64;98488.13;5116626;28;20426;-67
2022/03/18 06:28:35;;;;;;;5.68;3.63;;;;;;;4.53;30.63;98485.56;5116459;28;20528;-67
2022/03/18 06:31:00;;;;;;;8.77;3.97;;;;;;;5.08;27.98;98486.44;5116368;28;20137;-66
2022/03/18 06:33:29;;;;;;;7.07;4.65;;;;;;;4.98;28.87;98483.69;5116446;28;20015;-66
2022/03/18 06:35:54;;;;;;;9.38;4.47;;;;;;;5.43;28.82;98493.88;5116465;28;20153;-67
2022/03/18 06:38:20;;;;;;;4.22;3.60;;;;;;;4.85;28.21;98494.72;5116362;28;20057;-67
2022/03/18 06:40:46;;;;;;;4.35;3.00;;;;;;;4.03;28.04;98506.25;5116287;28;20072;-67
2022/03/18 06:43:11;;;;;;;5.15;3.50;;;;;;;3.78;29.75;98495.41;5116303;28;20031;-67
2022/03/18 06:45:37;;;;;;;5.25;3.67;;;;;;;4.15;29.23;98509.91;5114922;28;20023;-67
2022/03/18 06:48:02;;;;;;;6.18;4.45;;;;;;;4.05;30.61;98498.50;5116277;28;20019;-68
2022/03/18 06:50:29;;;;;;;6.47;4.10;;;;;;;4.36;28.84;98501.69;5116116;28;20030;-68
2022/03/18 06:52:55;;;;;;;5.63;3.63;;;;;;;4.41;28.74;98509.53;5116095;28;20020;-65
2022/03/18 06:55:20;;;;;;;5.90;3.55;;;;;;;4.38;29.17;98502.59;5115989;28;20441;-67
2022/03/18 06:57:46;;;;;;;6.65;3.40;;;;;;;3.98;29.30;98510.47;5115940;28;20035;-67
2022/03/18 07:00:12;;;;;;;5.20;3.83;;;;;;;3.83;29.73;98512.75;5115735;28;20020;-65
2022/03/18 07:02:38;;;;;;;7.93;4.10;;;;;;;3.64;30.32;98514.94;5115901;28;20033;-68
2022/03/18 07:05:04;;;;;;;11.68;4.05;;;;;;;3.21;31.41;98520.91;5115877;28;20098;-67
2022/03/18 07:07:30;;;;;;;6.13;3.83;;;;;;;2.97;30.93;98519.50;5115811;28;20035;-68
2022/03/18 07:09:55;;;;;;;5.60;3.88;;;;;;;2.94;31.48;98524.59;5115736;28;20028;-68
2022/03/18 07:12:21;;;;;;;7.28;4.43;;;;;;;2.89;31.09;98516.72;5115705;28;20023;-67
2022/03/18 07:14:46;;;;;;;5.53;3.92;;;;;;;2.85;31.35;98526.94;5115636;28;20024;-66
2022/03/18 07:19:56;;;;;;;7.80;3.95;;;;;;;2.52;31.89;98513.19;5115667;28;20058;-65
2022/03/18 07:22:24;;;;;;;8.73;3.92;;;;;;;2.85;32.27;98537.28;5115328;28;20071;-69
2022/03/18 07:24:50;;;;;;;6.68;3.78;;;;;;;2.42;30.70;98514.69;5115495;28;20051;-67
2022/03/18 07:27:16;;;;;;;4.65;3.15;;;;;;;2.60;34.18;98522.03;5115340;28;20023;-68
2022/03/18 07:29:42;;;;;;;5.50;3.70;;;;;;;2.88;31.74;98537.34;5115113;28;20028;-66
2022/03/18 07:32:08;;;;;;;4.55;3.10;;;;;;;2.84;31.42;98539.00;5115395;28;20015;-65
2022/03/18 07:34:34;;;;;;;7.55;4.07;;;;;;;2.72;31.85;98541.28;5115300;28;20104;-67
2022/03/18 07:36:59;;;;;;;5.05;3.80;;;;;;;2.66;32.27;98539.41;5115313;27;20038;-66
2022/03/18 07:39:25;;;;;;;8.25;3.80;;;;;;;2.78;32.08;98525.91;5115308;28;20492;-69
2022/03/18 07:41:51;;;;;;;7.47;3.80;;;;;;;2.77;33.37;98537.97;5115038;28;20381;-69
2022/03/18 07:44:16;;;;;;;6.40;4.13;;;;;;;3.00;33.30;98537.66;5115026;28;20035;-69
2022/03/18 07:46:42;;;;;;;6.28;3.90;;;;;;;3.13;32.31;98525.91;5115025;27;20032;-67
2022/03/18 07:49:07;;;;;;;5.43;3.33;;;;;;;3.48;33.25;98543.09;5115146;27;20418;-68
2022/03/18 07:51:33;;;;;;;10.40;3.88;;;;;;;3.38;31.16;98544.59;5115898;28;20418;-70
2022/03/18 07:53:58;;;;;;;6.05;3.97;;;;;;;3.44;32.58;98537.78;5115034;28;20020;-66
2022/03/18 07:56:24;;;;;;;7.28;4.40;;;;;;;3.24;31.67;98535.63;5114930;28;20031;-68
2022/03/18 07:58:50;;;;;;;5.53;3.83;;;;;;;3.21;32.17;98538.13;5114983;28;20027;-69
2022/03/18 08:01:16;;;;;;;4.32;3.38;;;;;;;3.21;32.09;98533.84;5114756;28;20023;-68
2022/03/18 08:03:41;;;;;;;5.85;3.45;;;;;;;3.11;31.84;98527.59;5114823;28;20024;-67
2022/03/18 08:06:07;;;;;;;4.82;3.85;;;;;;;3.12;31.38;98543.97;5114738;28;20098;-68
2022/03/18 08:08:32;;;;;;;5.85;3.80;;;;;;;3.35;32.45;98543.63;5114600;28;20561;-65
2022/03/18 08:10:58;;;;;;;5.53;3.20;;;;;;;3.41;34.03;98541.19;5113833;28;20020;-67
2022/03/18 08:13:24;;;;;;;3.22;2.90;;;;;;;3.41;31.44;98547.22;5114625;28;20076;-70
2022/03/18 08:15:50;;;;;;;6.07;3.50;;;;;;;3.29;31.93;98537.47;5114376;28;20019;-70
2022/03/18 08:18:16;;;;;;;6.13;3.53;;;;;;;3.44;33.49;98541.28;5114340;28;20103;-71
2022/03/18 08:20:42;;;;;;;4.10;3.13;;;;;;;3.72;31.59;98535.81;5114122;28;20097;-67
2022/03/18 08:23:12;;;;;;;4.80;3.10;;;;;;;3.61;31.55;98536.44;5114401;28;20024;-71
2022/03/18 08:25:38;;;;;;;5.55;3.05;;;;;;;3.31;31.48;98524.56;5114305;28;20020;-68
2022/03/18 08:28:07;;;;;;;5.65;3.35;;;;;;;3.43;30.79;98518.78;5114215;28;20084;-66
2022/03/18 08:30:33;;;;;;;4.05;3.13;;;;;;;3.34;29.76;98516.03;5114315;28;20023;-70
2022/03/18 08:32:59;;;;;;;4.38;2.90;;;;;;;3.48;30.36;98506.84;5114126;28;20028;-68
2022/03/18 08:35:25;;;;;;;4.18;2.42;;;;;;;3.16;30.80;98510.44;5114115;28;20027;-68
2022/03/18 08:37:57;;;;;;;4.68;3.38;;;;;;;3.43;32.69;98497.25;5114071;28;20480;-69
2022/03/18 08:40:32;;;;;;;4.90;2.75;;;;;;;3.13;29.34;98512.97;5114127;28;20028;-68
2022/03/18 08:42:59;;;;;;;5.32;2.75;;;;;;;3.28;31.04;98515.03;5113975;28;20027;-69
2022/03/18 08:45:27;;;;;;;3.60;2.40;;;;;;;3.05;29.57;98508.44;5113912;28;20016;-67
2022/03/18 08:47:55;;;;;;;6.18;2.97;;;;;;;3.00;31.63;98514.41;5113905;28;20397;-70
2022/03/18 08:50:22;;;;;;;4.35;3.20;;;;;;;3.01;30.62;98499.75;5113803;28;20019;-68
2022/03/18 08:52:53;;;;;;;3.60;2.55;;;;;;;3.08;31.16;98493.91;5113836;28;20477;-69
2022/03/18 08:55:20;;;;;;;5.35;3.30;;;;;;;3.34;31.50;98487.56;5113795;28;20385;-69
2022/03/18 08:57:45;;;;;;;3.17;2.63;;;;;;;3.49;30.30;98479.25;5113439;28;20358;-69
2022/03/18 09:00:17;;;;;;;4.03;2.88;;;;;;;3.45;28.45;98480.00;5113794;28;20030;-69
2022/03/18 09:02:44;;;;;;;3.42;3.13;;;;;;;3.57;28.98;98475.09;5113795;27;20034;-66
2022/03/18 09:05:11;;;;;;;4.00;3.17;;;;;;;3.62;28.46;98481.28;5113642;28;20016;-66
2022/03/18 09:07:38;;;;;;;3.50;2.72;;;;;;;3.49;29.56;98471.50;5113529;28;20122;-69
2022/03/18 09:10:05;;;;;;;3.25;2.67;;;;;;;3.39;28.54;98467.81;5113513;28;20020;-68
2022/03/18 09:12:31;;;;;;;4.05;2.72;;;;;;;3.33;29.14;98467.69;5113595;28;20023;-66
2022/03/18 09:14:58;;;;;;;3.60;2.63;;;;;;;3.28;28.78;98463.28;5113571;28;20063;-67
2022/03/18 09:17:24;;;;;;;5.82;2.60;;;;;;;3.26;29.21;98470.16;5113390;28;20016;-64
2022/03/18 09:19:49;;;;;;;4.70;2.53;;;;;;;3.18;29.90;98481.16;5113506;28;20023;-68
2022/03/18 09:22:16;;;;;;;3.53;2.50;;;;;;;3.27;30.10;98469.31;5114015;28;20043;-68
2022/03/18 09:24:42;;;;;;;4.78;2.88;;;;;;;3.44;29.94;98473.09;5117774;28;20019;-66
2022/03/18 09:27:09;;;;;;;3.58;2.30;;;;;;;3.48;29.37;98461.97;5117821;27;20024;-70
2022/03/18 09:29:36;;;;;;;4.55;2.60;;;;;;;3.44;30.31;98465.34;5117556;28;20019;-67
2022/03/18 09:32:03;;;;;;;5.35;2.70;;;;;;;3.50;29.83;98470.66;5117678;27;20023;-67
2022/03/18 09:34:29;;;;;;;3.83;2.35;;;;;;;3.40;28.68;98466.97;5117525;28;20024;-66
2022/03/18 09:36:57;;;;;;;6.28;3.88;;;;;;;3.30;28.74;98471.09;5117553;28;20016;-65
2022/03/18 09:39:24;;;;;;;3.80;2.50;;;;;;;3.44;28.47;98462.75;5118680;28;20065;-67
2022/03/18 09:41:50;;;;;;;6.35;3.13;;;;;;;3.36;29.72;98468.63;5118635;28;20480;-71
2022/03/18 09:44:16;;;;;;;4.25;2.90;;;;;;;3.11;29.90;98467.22;5118947;28;20345;-69
2022/03/18 09:46:45;;;;;;;5.63;2.85;;;;;;;3.37;29.95;98454.00;5118913;28;20023;-66
2022/03/18 09:49:14;;;;;;;4.63;2.60;;;;;;;3.59;32.22;98460.50;5119002;27;20107;-70
2022/03/18 09:51:42;;;;;;;4.05;2.90;;;;;;;3.85;29.89;98465.31;5118966;28;20134;-67
2022/03/18 09:54:09;;;;;;;3.80;2.78;;;;;;;3.83;28.26;98460.94;5118874;28;20152;-69
2022/03/18 09:56:35;;;;;;;4.25;2.80;;;;;;;3.96;29.00;98464.66;5118510;28;20024;-69
2022/03/18 09:59:02;;;;;;;3.63;2.60;;;;;;;3.76;29.51;98470.28;5117395;28;20031;-67
2022/03/18 10:01:28;;;;;;;3.53;2.25;;;;;;;3.61;29.18;98466.56;5117163;28;20500;-69
2022/03/18 10:03:53;;;;;;;3.88;2.70;;;;;;;3.66;29.56;98466.66;5117811;28;20031;-68
2022/03/18 10:06:27;;;;;;;3.58;2.38;;;;;;;3.66;29.75;98472.72;5117430;28;20028;-66
2022/03/18 10:08:54;;;;;;;5.95;2.92;;;;;;;3.66;30.76;98466.66;5118579;28;20110;-66
2022/03/18 10:11:26;;;;;;;4.00;2.80;;;;;;;3.93;29.44;98460.28;5118108;28;20387;-67
2022/03/18 10:13:57;;;;;;;6.22;2.90;;;;;;;4.17;29.26;98457.31;5118265;28;20046;-67
2022/03/18 10:16:46;;;;;;;3.83;2.40;;;;;;;4.09;28.88;98464.03;5117997;28;20085;-66
2022/03/18 10:19:24;;;;;;;4.43;2.70;;;;;;;3.89;29.23;98480.06;5118056;28;20384;-67
2022/03/18 10:22:07;;;;;;;4.15;3.22;;;;;;;3.52;29.13;98453.41;5117216;28;20039;-68
2022/03/18 10:24:34;;;;;;;6.00;3.05;;;;;;;3.77;31.45;98457.38;5117793;28;20051;-70
2022/03/18 10:27:20;;;;;;;3.92;2.60;;;;;;;4.14;30.34;98448.59;5118315;28;20028;-68
2022/03/18 10:29:54;;;;;;;4.20;2.90;;;;;;;4.47;30.81;98438.78;5116653;28;20043;-66
2022/03/18 10:32:22;;;;;;;4.90;2.88;;;;;;;4.54;29.13;98433.72;5116531;28;20107;-66
2022/03/18 10:37:51;;;;;;;5.18;2.72;;;;;;;4.23;27.45;98466.91;5116525;28;20149;-69
2022/03/18 10:40:19;;;;;;;4.45;2.67;;;;;;;3.99;28.30;98444.00;5117631;28;20806;-67
2022/03/18 10:42:58;;;;;;;4.18;2.85;;;;;;;3.97;29.12;98456.06;5117593;27;20024;-68
2022/03/18 10:45:23;;;;;;;3.95;3.10;;;;;;;3.98;30.63;98448.31;5118651;28;20046;-66
2022/03/18 10:47:52;;;;;;;4.45;2.97;;;;;;;3.98;28.20;98453.50;5116821;28;20023;-70
2022/03/18 10:50:29;;;;;;;4.80;2.83;;;;;;;3.80;28.71;98441.06;5116839;28;20042;-67
2022/03/18 10:52:58;;;;;;;3.38;2.83;;;;;;;3.59;29.15;98433.72;5116437;28;20023;-67
2022/03/18 10:55:36;;;;;;;4.93;3.80;;;;;;;3.85;29.86;98447.19;5116815;28;20057;-67
2022/03/18 10:58:11;;;;;;;5.07;3.10;;;;;;;4.17;30.23;98446.94;5117940;28;20496;-69
2022/03/18 11:00:51;;;;;;;6.80;3.38;;;;;;;4.38;29.84;98440.38;5117644;28;20031;-69
2022/03/18 11:03:17;;;;;;;5.28;2.95;;;;;;;4.54;29.22;98446.69;5116467;28;20378;-67
2022/03/18 11:05:47;;;;;;;5.07;2.90;;;;;;;4.61;28.99;98431.25;5117333;28;20072;-66
2022/03/18 11:08:21;;;;;;;3.55;2.80;;;;;;;4.71;26.96;98433.13;5116625;28;20035;-67
2022/03/18 11:11:37;;;;;;;3.67;2.78;;;;;;;4.58;28.30;98442.44;5117330;28;20031;-70
2022/03/18 11:13:53;;;;;;;6.40;2.63;;;;;;;4.46;28.35;98424.09;5112818;28;20040;-68
2022/03/18 11:16:28;;;;;;;3.50;2.80;;;;;;;4.26;28.61;98433.28;5116230;28;20046;-67
2022/03/18 11:18:54;;;;;;;3.13;2.50;;;;;;;4.23;28.65;98425.44;5116035;27;20109;-68
2022/03/18 11:21:21;;;;;;;3.75;2.92;;;;;;;4.39;30.36;98430.88;5115666;28;20051;-69
2022/03/18 11:23:48;;;;;;;5.20;2.88;;;;;;;4.51;29.85;98420.72;5116079;28;20381;-66
2022/03/18 11:26:16;;;;;;;3.45;2.70;;;;;;;4.35;28.17;98432.56;5116751;28;20031;-67
2022/03/18 11:28:42;;;;;;;3.20;2.60;;;;;;;4.42;29.30;98425.75;5116744;28;20076;-69
2022/03/18 11:31:10;;;;;;;5.95;3.78;;;;;;;4.53;27.76;98429.41;5116800;28;20026;-69
2022/03/18 11:33:38;;;;;;;5.53;2.65;;;;;;;4.53;28.07;98421.63;5116312;28;20011;-68
2022/03/18 11:36:06;;;;;;;5.07;3.20;;;;;;;4.49;28.92;98421.56;5116978;28;20399;-69
2022/03/18 11:38:51;;;;;;;5.45;3.03;;;;;;;4.49;28.72;98424.13;5116210;28;20030;-67
2022/03/18 11:41:17;;;;;;;3.65;2.50;;;;;;;4.63;28.14;98417.44;5115399;28;20388;-67
2022/03/18 11:43:43;;;;;;;3.63;2.85;;;;;;;4.65;28.75;98422.66;5115995;28;20481;-69
2022/03/18 11:48:51;;;;;;;3.47;2.50;;;;;;;4.75;27.00;98410.69;5116023;28;20027;-67
2022/03/18 11:51:39;;;;;;;5.60;2.92;;;;;;;4.98;28.29;98412.78;5116461;28;20477;-67
2022/03/18 11:54:23;;;;;;;2.28;1.88;;;;;;;5.11;25.82;98398.25;5116226;28;20500;-70
2022/03/18 11:56:50;;;;;;;2.85;2.38;;;;;;;4.78;26.94;98406.44;5115722;28;20031;-68
2022/03/18 11:59:25;;;;;;;5.22;2.95;;;;;;;4.85;28.09;98412.59;5115352;28;20027;-67
2022/03/18 12:01:57;;;;;;;3.90;2.72;;;;;;;5.04;26.77;98416.34;5115565;28;20019;-68
2022/03/18 12:04:46;;;;;;;3.75;2.53;;;;;;;4.85;25.79;98412.59;5114884;28;20019;-67
2022/03/18 12:07:27;;;;;;;4.82;2.88;;;;;;;4.60;26.12;98409.63;5114904;28;20061;-67